createdAt,value
2022-11-27T00:01:47.045Z,10.52
2022-11-27T00:04:17.410Z,8.75
2022-11-27T00:06:45.977Z,6.95
2022-11-27T00:09:17.167Z,6.03
2022-11-27T00:11:46.420Z,5.50
2022-11-27T00:14:17.163Z,6.88
2022-11-27T00:16:45.798Z,5.97
2022-11-27T00:19:14.593Z,5.88
2022-11-27T00:21:44.508Z,5.82
2022-11-27T00:24:13.690Z,5.03
2022-11-27T00:26:42.228Z,4.55
2022-11-27T00:29:11.514Z,4.25
2022-11-27T00:31:40.284Z,3.20
2022-11-27T00:34:10.286Z,3.28
2022-11-27T00:36:43.976Z,3.00
2022-11-27T00:39:16.680Z,3.38
2022-11-27T00:41:45.539Z,5.05
2022-11-27T00:44:15.068Z,3.55
2022-11-27T00:46:44.016Z,3.30
2022-11-27T00:49:15.704Z,3.88
2022-11-27T00:51:44.769Z,3.35
2022-11-27T00:54:13.398Z,2.80
2022-11-27T00:56:43.278Z,2.47
2022-11-27T00:59:13.105Z,2.33
2022-11-27T01:01:44.206Z,2.03
2022-11-27T01:04:16.201Z,2.20
2022-11-27T01:06:45.684Z,2.00
2022-11-27T01:09:15.527Z,2.10
2022-11-27T01:11:45.742Z,1.70
2022-11-27T01:14:18.530Z,1.95
2022-11-27T01:16:47.407Z,1.90
2022-11-27T01:19:16.649Z,1.77
2022-11-27T01:21:45.211Z,1.70
2022-11-27T01:24:16.266Z,1.80
2022-11-27T01:26:46.853Z,2.42
2022-11-27T01:29:15.683Z,2.30
2022-11-27T01:31:44.382Z,1.92
2022-11-27T01:34:17.227Z,2.00
2022-11-27T01:36:46.514Z,2.00
2022-11-27T01:39:19.431Z,2.15
2022-11-27T01:41:50.365Z,2.10
2022-11-27T01:44:55.612Z,1.90
2022-11-27T01:47:42.890Z,1.70
2022-11-27T01:50:18.152Z,2.00
2022-11-27T01:52:52.808Z,1.80
2022-11-27T01:55:29.002Z,1.70
2022-11-27T01:58:02.736Z,1.50
2022-11-27T02:00:32.034Z,1.88
2022-11-27T02:03:00.937Z,1.70
2022-11-27T02:05:30.651Z,1.70
2022-11-27T02:08:04.664Z,1.50
2022-11-27T02:10:45.960Z,1.60
2022-11-27T02:13:26.074Z,1.60
2022-11-27T02:16:07.049Z,1.45
2022-11-27T02:18:45.534Z,1.48
2022-11-27T02:21:21.476Z,1.42
2022-11-27T02:24:30.781Z,1.80
2022-11-27T02:27:21.223Z,1.50
2022-11-27T02:29:57.174Z,1.70
2022-11-27T02:32:32.398Z,1.77
2022-11-27T02:35:07.702Z,1.45
2022-11-27T02:37:41.279Z,1.40
2022-11-27T02:40:14.785Z,1.65
2022-11-27T02:42:49.441Z,1.98
2022-11-27T02:45:24.702Z,1.20
2022-11-27T02:47:53.797Z,1.70
2022-11-27T02:50:27.276Z,1.48
2022-11-27T02:53:02.476Z,1.63
2022-11-27T02:55:35.473Z,1.50
2022-11-27T02:58:09.684Z,1.70
2022-11-27T03:00:41.412Z,1.38
2022-11-27T03:03:14.902Z,1.38
2022-11-27T03:05:48.028Z,1.30
2022-11-27T03:08:25.193Z,1.50
2022-11-27T03:11:00.425Z,1.70
2022-11-27T03:13:30.328Z,1.85
2022-11-27T03:16:12.138Z,1.98
2022-11-27T03:18:48.031Z,1.70
2022-11-27T03:21:26.538Z,1.75
2022-11-27T03:23:55.531Z,2.38
2022-11-27T03:26:24.410Z,2.67
2022-11-27T03:28:55.617Z,3.65
2022-11-27T03:31:26.490Z,4.00
2022-11-27T03:33:55.869Z,5.07
2022-11-27T03:36:24.657Z,4.68
2022-11-27T03:38:55.610Z,4.63
2022-11-27T03:41:35.781Z,3.08
2022-11-27T03:44:17.983Z,4.03
2022-11-27T03:47:04.706Z,3.35
2022-11-27T03:49:45.020Z,3.00
2022-11-27T03:52:26.597Z,3.03
2022-11-27T03:55:06.537Z,5.05
2022-11-27T03:57:42.976Z,3.28
2022-11-27T04:00:14.071Z,2.75
2022-11-27T04:02:47.865Z,2.70
2022-11-27T04:05:17.101Z,2.78
2022-11-27T04:07:46.088Z,2.45
2022-11-27T04:10:14.993Z,3.65
2022-11-27T04:12:44.023Z,3.13
2022-11-27T04:15:13.734Z,3.65
2022-11-27T04:17:43.961Z,2.70
2022-11-27T04:20:14.893Z,3.20
2022-11-27T04:22:43.814Z,2.90
2022-11-27T04:25:12.658Z,2.50
2022-11-27T04:27:41.471Z,2.70
2022-11-27T04:30:13.184Z,2.40
2022-11-27T04:32:43.905Z,2.53
2022-11-27T04:35:12.873Z,2.70
2022-11-27T04:37:41.964Z,2.80
2022-11-27T04:40:12.271Z,3.50
2022-11-27T04:42:41.008Z,3.10
2022-11-27T04:45:10.672Z,2.85
2022-11-27T04:47:39.256Z,3.13
2022-11-27T04:50:10.902Z,2.35
2022-11-27T04:52:39.431Z,2.90
2022-11-27T04:55:09.825Z,2.55
2022-11-27T04:57:38.623Z,2.47
2022-11-27T05:00:09.797Z,2.33
2022-11-27T05:02:38.906Z,2.20
2022-11-27T05:05:10.068Z,2.55
2022-11-27T05:07:39.299Z,2.17
2022-11-27T05:10:09.947Z,2.28
2022-11-27T05:12:38.544Z,1.80
2022-11-27T05:15:09.248Z,1.65
2022-11-27T05:17:37.926Z,1.90
2022-11-27T05:20:10.209Z,1.90
2022-11-27T05:22:38.787Z,2.42
2022-11-27T05:25:08.193Z,2.25
2022-11-27T05:27:37.287Z,1.92
2022-11-27T05:30:07.506Z,2.53
2022-11-27T05:32:36.090Z,1.95
2022-11-27T05:35:05.442Z,2.50
2022-11-27T05:37:35.398Z,2.72
2022-11-27T05:40:04.445Z,2.90
2022-11-27T05:42:33.289Z,2.65
2022-11-27T05:45:02.112Z,2.40
2022-11-27T05:47:31.163Z,2.75
2022-11-27T05:50:00.007Z,2.80
2022-11-27T05:52:28.568Z,2.53
2022-11-27T05:54:58.538Z,2.88
2022-11-27T05:57:28.255Z,2.38
2022-11-27T05:59:56.796Z,2.33
2022-11-27T06:02:29.418Z,3.00
2022-11-27T06:04:58.320Z,3.00
2022-11-27T06:07:28.089Z,2.97
2022-11-27T06:09:58.132Z,2.80
2022-11-27T06:12:26.937Z,3.08
2022-11-27T06:14:55.947Z,2.55
2022-11-27T06:17:24.522Z,3.10
2022-11-27T06:19:53.309Z,2.60
2022-11-27T06:22:22.394Z,2.97
2022-11-27T06:24:51.717Z,2.53
2022-11-27T06:27:21.709Z,2.95
2022-11-27T06:29:50.608Z,2.63
2022-11-27T06:32:19.405Z,1.98
2022-11-27T06:34:48.189Z,1.90
2022-11-27T06:37:17.033Z,1.58
2022-11-27T06:39:45.889Z,1.90
2022-11-27T06:42:14.428Z,2.40
2022-11-27T06:44:44.461Z,7.70
2022-11-27T06:47:13.262Z,4.20
2022-11-27T06:49:42.190Z,3.00
2022-11-27T06:52:11.266Z,1.92
2022-11-27T06:54:40.650Z,2.03
2022-11-27T06:57:09.697Z,1.92
2022-11-27T06:59:38.453Z,1.98
2022-11-27T07:02:10.160Z,3.47
2022-11-27T07:04:38.992Z,9.45
2022-11-27T07:07:08.153Z,9.27
2022-11-27T07:09:36.938Z,3.85
2022-11-27T07:12:06.646Z,3.40
2022-11-27T07:14:35.414Z,3.53
2022-11-27T07:17:04.189Z,4.45
2022-11-27T07:19:34.569Z,2.45
2022-11-27T07:22:03.344Z,2.90
2022-11-27T07:24:31.925Z,2.45
2022-11-27T07:27:00.449Z,2.55
2022-11-27T07:29:28.988Z,3.70
2022-11-27T07:31:57.587Z,3.90
2022-11-27T07:34:26.369Z,7.75
2022-11-27T07:36:56.318Z,9.43
2022-11-27T07:39:46.351Z,9.88
2022-11-27T07:45:02.276Z,8.27
2022-11-27T07:47:31.785Z,9.45
2022-11-27T07:50:00.696Z,7.93
2022-11-27T07:52:30.869Z,8.90
2022-11-27T07:54:59.426Z,8.80
2022-11-27T07:57:29.186Z,9.13
2022-11-27T07:59:57.968Z,9.70
2022-11-27T08:02:26.939Z,8.55
2022-11-27T08:04:56.016Z,7.55
2022-11-27T08:07:30.487Z,8.25
2022-11-27T08:09:59.517Z,6.60
2022-11-27T08:12:28.466Z,7.78
2022-11-27T08:14:57.499Z,8.13
2022-11-27T08:17:26.048Z,7.57
2022-11-27T08:19:54.806Z,6.13
2022-11-27T08:22:23.459Z,5.40
2022-11-27T08:24:53.569Z,4.93
2022-11-27T08:27:22.292Z,6.00
2022-11-27T08:29:51.074Z,5.80
2022-11-27T08:32:19.911Z,5.32
2022-11-27T08:34:48.692Z,5.50
2022-11-27T08:37:17.518Z,5.22
2022-11-27T08:39:46.279Z,5.07
2022-11-27T08:42:16.418Z,5.60
2022-11-27T08:44:44.959Z,5.30
2022-11-27T08:47:15.802Z,5.93
2022-11-27T08:49:46.235Z,6.72
2022-11-27T08:52:15.516Z,7.85
2022-11-27T08:54:44.265Z,7.20
2022-11-27T08:57:13.021Z,7.32
2022-11-27T08:59:42.975Z,8.77
2022-11-27T09:02:14.051Z,11.70
2022-11-27T09:04:42.971Z,8.88
2022-11-27T09:07:14.499Z,8.50
2022-11-27T09:09:43.535Z,10.50
2022-11-27T09:12:12.396Z,9.80
2022-11-27T09:14:42.718Z,9.32
2022-11-27T09:17:11.512Z,7.25
2022-11-27T09:19:40.114Z,7.15
2022-11-27T09:22:08.682Z,7.90
2022-11-27T09:24:38.591Z,8.43
2022-11-27T09:27:07.363Z,9.13
2022-11-27T09:29:36.294Z,13.45
2022-11-27T09:32:06.677Z,15.55
2022-11-27T09:34:37.667Z,13.82
2022-11-27T09:37:07.421Z,10.23
2022-11-27T09:39:36.472Z,12.05
2022-11-27T09:42:08.753Z,15.60
2022-11-27T09:44:43.089Z,15.80
2022-11-27T09:47:22.290Z,14.77
2022-11-27T09:49:55.971Z,16.23
2022-11-27T09:52:29.556Z,15.10
2022-11-27T09:55:03.193Z,15.48
2022-11-27T09:57:38.347Z,13.50
2022-11-27T10:00:13.460Z,8.77
2022-11-27T10:02:45.430Z,8.48
2022-11-27T10:05:21.969Z,12.07
2022-11-27T10:08:19.275Z,13.75
2022-11-27T10:11:01.725Z,12.02
2022-11-27T10:13:43.082Z,12.30
2022-11-27T10:16:23.318Z,9.32
2022-11-27T10:18:57.282Z,12.93
2022-11-27T10:21:37.986Z,8.05
2022-11-27T10:24:20.080Z,4.47
2022-11-27T10:26:51.796Z,3.92
2022-11-27T10:29:36.935Z,4.85
2022-11-27T10:32:32.966Z,6.60
2022-11-27T10:35:06.957Z,3.90
2022-11-27T10:37:43.235Z,3.60
2022-11-27T10:40:26.916Z,3.63
2022-11-27T10:43:04.744Z,4.82
2022-11-27T10:45:43.949Z,4.60
2022-11-27T10:48:13.837Z,5.28
2022-11-27T10:50:45.967Z,6.70
2022-11-27T10:53:26.915Z,7.15
2022-11-27T10:56:41.584Z,6.32
2022-11-27T10:59:15.461Z,10.65
2022-11-27T11:01:47.271Z,8.13
2022-11-27T11:04:37.486Z,6.80
2022-11-27T11:07:27.472Z,5.85
2022-11-27T11:09:56.949Z,5.32
2022-11-27T11:12:25.923Z,15.20
2022-11-27T11:14:56.533Z,9.07
2022-11-27T11:17:28.128Z,6.97
2022-11-27T11:19:57.090Z,7.15
2022-11-27T11:22:28.666Z,5.53
2022-11-27T11:25:00.144Z,5.60
2022-11-27T11:27:32.364Z,7.10
2022-11-27T11:30:03.089Z,6.97
2022-11-27T11:32:34.847Z,5.43
2022-11-27T11:35:10.164Z,6.20
2022-11-27T11:37:43.988Z,6.15
2022-11-27T11:40:25.088Z,5.30
2022-11-27T11:42:57.399Z,3.95
2022-11-27T11:45:31.223Z,4.35
2022-11-27T11:48:03.576Z,4.38
2022-11-27T11:50:41.193Z,4.18
2022-11-27T11:53:18.379Z,4.30
2022-11-27T11:56:01.005Z,3.90
2022-11-27T11:58:52.316Z,3.38
2022-11-27T12:01:56.834Z,4.38
2022-11-27T12:04:46.518Z,6.00
2022-11-27T12:07:29.499Z,4.22
2022-11-27T12:10:09.788Z,5.70
2022-11-27T12:12:57.346Z,5.60
2022-11-27T12:15:31.177Z,4.93
2022-11-27T12:18:06.841Z,7.38
2022-11-27T12:20:52.458Z,5.57
2022-11-27T12:23:43.887Z,4.57
2022-11-27T12:26:26.765Z,5.15
2022-11-27T12:29:35.682Z,4.97
2022-11-27T12:32:42.363Z,5.63
2022-11-27T12:35:44.720Z,4.30
2022-11-27T12:38:40.635Z,5.85
2022-11-27T12:41:56.088Z,5.20
2022-11-27T12:44:32.051Z,3.85
2022-11-27T12:47:04.873Z,3.55
2022-11-27T12:49:40.201Z,5.95
2022-11-27T12:52:16.048Z,5.10
2022-11-27T12:54:53.309Z,3.65
2022-11-27T12:57:31.854Z,3.50
2022-11-27T13:00:06.398Z,3.80
2022-11-27T13:02:39.804Z,3.17
2022-11-27T13:05:13.660Z,3.78
2022-11-27T13:07:47.681Z,4.30
2022-11-27T13:10:25.572Z,3.90
2022-11-27T13:13:03.649Z,4.97
2022-11-27T13:15:38.816Z,4.20
2022-11-27T13:18:20.212Z,4.55
2022-11-27T13:20:52.525Z,4.43
2022-11-27T13:23:22.007Z,4.75
2022-11-27T13:25:56.181Z,4.60
2022-11-27T13:28:33.007Z,3.92
2022-11-27T13:31:03.227Z,4.00
2022-11-27T13:33:39.229Z,4.00
2022-11-27T13:36:19.807Z,3.13
2022-11-27T13:38:56.896Z,3.95
2022-11-27T13:41:34.073Z,2.95
2022-11-27T13:44:10.320Z,1.55
2022-11-27T13:46:49.703Z,1.30
2022-11-27T13:49:28.701Z,1.20
2022-11-27T13:52:11.413Z,1.50
2022-11-27T13:54:40.788Z,1.30
2022-11-27T13:57:17.499Z,1.30
2022-11-27T14:00:03.013Z,1.20
2022-11-27T14:02:46.850Z,1.58
2022-11-27T14:05:18.006Z,2.08
2022-11-27T14:07:50.139Z,4.38
2022-11-27T14:10:22.905Z,4.07
2022-11-27T14:12:54.964Z,4.35
2022-11-27T14:15:27.934Z,3.53
2022-11-27T14:18:09.487Z,3.00
2022-11-27T14:20:48.311Z,3.30
2022-11-27T14:23:30.140Z,3.58
2022-11-27T14:26:21.812Z,2.97
2022-11-27T14:28:53.645Z,2.17
2022-11-27T14:31:31.687Z,3.85
2022-11-27T14:34:23.132Z,4.20
2022-11-27T14:36:53.856Z,5.47
2022-11-27T14:39:29.964Z,4.30
2022-11-27T14:42:00.989Z,5.35
2022-11-27T14:44:30.599Z,5.63
2022-11-27T14:47:04.872Z,4.85
2022-11-27T14:49:34.632Z,4.72
2022-11-27T14:52:07.211Z,5.05
2022-11-27T14:54:39.938Z,5.03
2022-11-27T14:57:16.561Z,4.93
2022-11-27T14:59:45.380Z,5.72
2022-11-27T15:02:26.068Z,5.45
2022-11-27T15:05:05.970Z,4.65
2022-11-27T15:07:45.229Z,4.45
2022-11-27T15:10:29.432Z,4.78
2022-11-27T15:12:59.391Z,3.55
2022-11-27T15:15:30.130Z,3.63
2022-11-27T15:18:04.056Z,4.30
2022-11-27T15:20:40.219Z,6.05
2022-11-27T15:23:18.471Z,5.10
2022-11-27T15:25:50.431Z,2.88
2022-11-27T15:28:35.139Z,6.28
2022-11-27T15:31:23.393Z,5.90
2022-11-27T15:34:01.866Z,6.45
2022-11-27T15:36:39.176Z,6.65
2022-11-27T15:39:21.258Z,5.72
2022-11-27T15:41:56.571Z,5.65
2022-11-27T15:44:26.657Z,4.63
2022-11-27T15:46:58.710Z,3.38
2022-11-27T15:49:29.003Z,2.85
2022-11-27T15:51:58.636Z,2.97
2022-11-27T15:54:27.819Z,4.82
2022-11-27T15:56:56.416Z,5.32
2022-11-27T15:59:27.390Z,6.63
2022-11-27T16:01:58.212Z,7.20
2022-11-27T16:04:28.548Z,7.43
2022-11-27T16:06:57.076Z,7.00
2022-11-27T16:09:26.213Z,7.50
2022-11-27T16:11:55.001Z,6.28
2022-11-27T16:14:23.776Z,6.55
2022-11-27T16:16:52.381Z,6.80
2022-11-27T16:19:21.609Z,6.07
2022-11-27T16:21:51.547Z,6.60
2022-11-27T16:24:20.115Z,5.00
2022-11-27T16:26:49.000Z,3.97
2022-11-27T16:29:17.770Z,4.07
2022-11-27T16:31:46.403Z,4.53
2022-11-27T16:34:17.073Z,5.55
2022-11-27T16:36:46.229Z,8.23
2022-11-27T16:39:18.637Z,6.30
2022-11-27T16:41:47.387Z,6.65
2022-11-27T16:44:17.108Z,10.50
2022-11-27T16:46:45.665Z,9.80
2022-11-27T16:49:14.998Z,8.13
2022-11-27T16:51:44.922Z,7.97
2022-11-27T16:54:16.101Z,5.13
2022-11-27T16:56:45.452Z,6.78
2022-11-27T16:59:16.110Z,5.50
2022-11-27T17:01:45.575Z,5.65
2022-11-27T17:04:19.620Z,4.13
2022-11-27T17:06:49.754Z,4.68
2022-11-27T17:09:20.544Z,4.40
2022-11-27T17:11:50.137Z,10.43
2022-11-27T17:14:20.483Z,11.35
2022-11-27T17:16:49.705Z,11.10
2022-11-27T17:19:19.479Z,9.73
2022-11-27T17:21:48.205Z,8.40
2022-11-27T17:24:19.509Z,9.20
2022-11-27T17:26:49.985Z,8.85
2022-11-27T17:29:21.768Z,6.38
2022-11-27T17:31:51.339Z,7.22
2022-11-27T17:34:20.790Z,9.07
2022-11-27T17:36:53.647Z,10.05
2022-11-27T17:39:24.141Z,10.60
2022-11-27T17:41:53.179Z,10.70
2022-11-27T17:44:21.721Z,11.63
2022-11-27T17:46:50.840Z,11.50
2022-11-27T17:49:22.160Z,9.65
2022-11-27T17:51:51.234Z,8.10
2022-11-27T17:54:20.042Z,8.73
2022-11-27T17:56:51.832Z,8.63
2022-11-27T17:59:20.865Z,9.02
2022-11-27T18:01:53.248Z,9.32
2022-11-27T18:04:22.400Z,8.65
2022-11-27T18:06:51.268Z,9.18
2022-11-27T18:09:20.182Z,8.35
2022-11-27T18:11:50.348Z,7.78
2022-11-27T18:14:19.141Z,9.00
2022-11-27T18:16:47.885Z,8.70
2022-11-27T18:19:16.742Z,7.38
2022-11-27T18:21:45.509Z,8.13
2022-11-27T18:24:23.170Z,8.25
2022-11-27T18:27:10.567Z,6.80
2022-11-27T18:29:43.139Z,7.20
2022-11-27T18:32:12.688Z,7.45
2022-11-27T18:34:42.216Z,7.13
2022-11-27T18:37:12.229Z,7.25
2022-11-27T18:39:44.742Z,6.80
2022-11-27T18:42:15.559Z,7.78
2022-11-27T18:44:45.383Z,8.18
2022-11-27T18:47:15.161Z,7.40
2022-11-27T18:49:44.468Z,8.63
2022-11-27T18:52:13.619Z,8.40
2022-11-27T18:54:42.242Z,7.53
2022-11-27T18:57:11.375Z,7.60
2022-11-27T18:59:44.794Z,6.85
2022-11-27T19:02:13.741Z,7.10
2022-11-27T19:04:44.338Z,6.55
2022-11-27T19:07:13.192Z,6.03
2022-11-27T19:09:42.343Z,6.32
2022-11-27T19:12:12.292Z,5.30
2022-11-27T19:14:42.405Z,5.40
2022-11-27T19:17:11.193Z,5.30
2022-11-27T19:19:55.942Z,5.30
2022-11-27T19:22:24.561Z,5.03
2022-11-27T19:24:53.092Z,6.78
2022-11-27T19:27:21.688Z,6.72
2022-11-27T19:29:51.727Z,6.80
2022-11-27T19:32:20.276Z,5.82
2022-11-27T19:34:51.434Z,5.97
2022-11-27T19:37:33.637Z,7.03
2022-11-27T19:40:04.094Z,8.02
2022-11-27T19:42:33.430Z,7.30
2022-11-27T19:45:03.985Z,7.45
2022-11-27T19:47:32.767Z,5.35
2022-11-27T19:50:01.351Z,4.88
2022-11-27T19:52:29.931Z,5.13
2022-11-27T19:54:58.761Z,5.38
2022-11-27T19:57:28.584Z,6.90
2022-11-27T19:59:57.346Z,6.60
2022-11-27T20:02:27.499Z,5.63
2022-11-27T20:04:56.352Z,5.18
2022-11-27T20:07:25.283Z,6.15
2022-11-27T20:09:54.989Z,7.45
2022-11-27T20:12:23.613Z,7.90
2022-11-27T20:14:52.378Z,6.15
2022-11-27T20:17:21.017Z,8.38
2022-11-27T20:19:51.380Z,10.77
2022-11-27T20:22:19.955Z,8.85
2022-11-27T20:25:11.552Z,9.73
2022-11-27T20:27:37.776Z,7.93
2022-11-27T20:30:08.850Z,9.88
2022-11-27T20:32:37.677Z,11.27
2022-11-27T20:35:08.360Z,9.07
2022-11-27T20:37:38.228Z,12.18
2022-11-27T20:40:08.918Z,9.90
2022-11-27T20:42:37.704Z,8.32
2022-11-27T20:45:07.709Z,8.10
2022-11-27T20:47:37.074Z,8.27
2022-11-27T20:50:09.319Z,8.52
2022-11-27T20:52:38.436Z,8.48
2022-11-27T20:55:08.788Z,8.45
2022-11-27T20:57:37.589Z,7.88
2022-11-27T21:00:09.280Z,9.50
2022-11-27T21:02:40.865Z,8.93
2022-11-27T21:05:12.227Z,8.95
2022-11-27T21:07:43.975Z,9.63
2022-11-27T21:10:16.757Z,10.20
2022-11-27T21:12:45.733Z,10.25
2022-11-27T21:15:14.433Z,7.63
2022-11-27T21:17:42.984Z,7.25
2022-11-27T21:20:14.688Z,8.10
2022-11-27T21:22:44.148Z,7.78
2022-11-27T21:25:13.217Z,8.63
2022-11-27T21:27:41.795Z,7.50
2022-11-27T21:30:11.319Z,8.80
2022-11-27T21:32:39.879Z,9.25
2022-11-27T21:35:09.433Z,8.70
2022-11-27T21:37:39.386Z,7.78
2022-11-27T21:40:09.824Z,7.10
2022-11-27T21:42:44.226Z,6.35
2022-11-27T21:45:13.824Z,7.03
2022-11-27T21:47:42.385Z,6.53
2022-11-27T21:50:13.988Z,6.25
2022-11-27T21:52:44.168Z,4.88
2022-11-27T21:55:12.741Z,5.20
2022-11-27T21:57:41.393Z,5.18
2022-11-27T22:00:11.170Z,4.90
2022-11-27T22:02:39.997Z,6.28
2022-11-27T22:05:10.009Z,5.97
2022-11-27T22:07:38.880Z,6.18
2022-11-27T22:10:12.271Z,6.55
2022-11-27T22:12:40.840Z,6.45
2022-11-27T22:15:10.592Z,6.55
2022-11-27T22:17:39.416Z,6.72
2022-11-27T22:20:09.671Z,6.38
2022-11-27T22:22:38.222Z,7.88
2022-11-27T22:25:07.748Z,6.10
2022-11-27T22:27:37.969Z,6.45
2022-11-27T22:30:08.625Z,6.68
2022-11-27T22:32:37.376Z,6.45
2022-11-27T22:35:07.006Z,6.45
2022-11-27T22:37:35.552Z,6.25
2022-11-27T22:40:04.656Z,5.80
2022-11-27T22:42:33.496Z,5.75
2022-11-27T22:45:03.502Z,5.57
2022-11-27T22:47:32.047Z,5.78
2022-11-27T22:50:00.888Z,5.18
2022-11-27T22:52:30.372Z,5.00
2022-11-27T22:54:59.209Z,5.03
2022-11-27T22:57:27.769Z,4.65
2022-11-27T22:59:56.535Z,4.72
2022-11-27T23:02:27.369Z,4.90
2022-11-27T23:04:55.941Z,4.75
2022-11-27T23:07:25.460Z,5.38
2022-11-27T23:09:54.481Z,5.07
2022-11-27T23:12:23.089Z,5.30
2022-11-27T23:14:51.971Z,6.05
2022-11-27T23:17:20.537Z,7.80
2022-11-27T23:19:50.488Z,7.40
2022-11-27T23:22:19.326Z,7.63
2022-11-27T23:24:47.860Z,8.13
2022-11-27T23:27:16.473Z,8.82
2022-11-27T23:29:45.244Z,9.13
2022-11-27T23:32:13.914Z,8.82
2022-11-27T23:34:42.706Z,9.15
2022-11-27T23:37:12.835Z,9.38
2022-11-27T23:39:41.628Z,9.65
2022-11-27T23:42:10.240Z,7.97
2022-11-27T23:44:38.991Z,7.57
2022-11-27T23:47:08.175Z,7.63
2022-11-27T23:49:36.724Z,8.85
2022-11-27T23:52:05.762Z,6.82
2022-11-27T23:54:35.733Z,7.35
2022-11-27T23:57:04.822Z,7.78
2022-11-27T23:59:33.386Z,7.43
